Time;durP1;ratioP1;P1;durP2;ratioP2;P2;SDS_P1;SDS_P2;PMS_P1;PMS_P2;Temp;Humidity;BMP_temperature;BMP_pressure;BME280_temperature;BME280_humidity;BME280_pressure;Samples;Min_cycle;Max_cycle;Signal;HPM_P1;HPM_P2
2022/10/20 00:55:29;;;;;;;16.40;12.30;;;;;;;-0.13;84.24;100602.25;422249;1281;205658;-68
2022/10/20 01:05:35;;;;;;;20.30;15.00;;;;;;;-0.30;83.97;100586.48;422510;1281;161448;-69
2022/10/20 01:15:46;;;;;;;21.90;16.10;;;;;;;-0.37;84.24;100578.23;423159;1281;142966;-69
2022/10/20 01:26:06;;;;;;;21.50;14.10;;;;;;;-0.39;84.60;100566.55;422624;1282;142791;-69
2022/10/20 01:36:20;;;;;;;23.20;14.30;;;;;;;-0.43;84.49;100561.05;421634;1280;146459;-68
2022/10/20 01:46:27;;;;;;;23.00;16.20;;;;;;;-0.52;84.53;100563.66;420257;1281;154000;-68
2022/10/20 02:08:06;;;;;;;24.90;13.80;;;;;;;-0.70;85.05;100559.73;420303;1281;142478;-68
2022/10/20 02:18:17;;;;;;;18.40;13.30;;;;;;;-0.78;84.98;100555.64;420482;1281;143778;-69
2022/10/20 02:39:46;;;;;;;17.90;11.10;;;;;;;-0.91;85.05;100551.88;421468;1281;205530;-68
2022/10/20 03:01:14;;;;;;;17.80;9.60;;;;;;;-1.06;85.42;100565.46;423364;1280;336228;-68
2022/10/20 03:11:20;;;;;;;18.70;14.00;;;;;;;-1.11;85.61;100568.20;423477;1281;141502;-69
2022/10/20 03:21:25;;;;;;;17.60;13.10;;;;;;;-1.18;85.57;100579.90;423060;1281;141890;-70
2022/10/20 03:31:31;;;;;;;18.60;13.60;;;;;;;-1.28;85.75;100589.69;422538;1280;143938;-71
2022/10/20 03:41:36;;;;;;;16.20;13.40;;;;;;;-1.35;85.64;100594.48;421940;1281;142947;-70
2022/10/20 03:51:42;;;;;;;19.90;13.60;;;;;;;-1.49;85.68;100591.21;422744;1280;142538;-72
2022/10/20 04:01:48;;;;;;;21.30;13.90;;;;;;;-1.55;86.14;100587.59;425595;1281;202060;-69
2022/10/20 04:11:54;;;;;;;18.00;13.10;;;;;;;-1.55;86.00;100592.40;421837;1281;143738;-70
2022/10/20 04:22:00;;;;;;;19.70;13.20;;;;;;;-1.59;86.20;100586.21;422893;1281;142391;-72
2022/10/20 04:32:06;;;;;;;22.10;16.40;;;;;;;-1.49;86.36;100576.78;425737;1281;144091;-70
2022/10/20 04:42:12;;;;;;;25.40;15.50;;;;;;;-1.25;86.56;100562.04;431271;1283;143453;-69
2022/10/20 04:52:19;;;;;;;23.10;13.20;;;;;;;-1.06;86.99;100552.92;429934;1277;183874;-69
2022/10/20 05:02:25;;;;;;;23.50;16.90;;;;;;;-0.95;87.41;100547.23;422496;1282;143007;-72
2022/10/20 05:12:30;;;;;;;33.20;15.70;;;;;;;-0.93;87.56;100550.32;423464;1282;142194;-69
2022/10/20 05:22:36;;;;;;;32.70;17.20;;;;;;;-0.89;87.53;100555.83;429124;1282;142180;-69
2022/10/20 05:32:42;;;;;;;25.10;16.20;;;;;;;-0.88;87.27;100559.77;435574;1274;160302;-69
2022/10/20 05:42:48;;;;;;;30.40;16.60;;;;;;;-0.84;87.26;100559.41;436204;1283;144863;-68
2022/10/20 05:52:54;;;;;;;22.60;13.30;;;;;;;-0.66;86.76;100581.06;430365;1282;143277;-68
2022/10/20 06:03:00;;;;;;;18.60;13.50;;;;;;;-0.27;86.99;100591.46;435122;1280;144130;-69
2022/10/20 06:13:05;;;;;;;21.20;12.80;;;;;;;0.71;87.45;100598.98;436465;1283;142432;-71
2022/10/20 06:23:11;;;;;;;19.20;14.20;;;;;;;4.95;86.49;100607.55;436426;1286;142948;-70
2022/10/20 06:33:17;;;;;;;29.70;22.40;;;;;;;8.89;81.08;100608.48;435730;1277;143572;-71
2022/10/20 06:43:22;;;;;;;30.70;27.10;;;;;;;12.66;76.17;100605.05;436435;1282;144526;-69
2022/10/20 06:53:29;;;;;;;20.30;16.30;;;;;;;15.87;70.82;100601.64;428802;1282;143708;-67
2022/10/20 07:03:37;;;;;;;21.90;18.60;;;;;;;18.62;65.82;100607.02;436477;1282;141755;-67
2022/10/20 07:13:43;;;;;;;27.20;21.40;;;;;;;21.74;60.81;100604.90;436491;1281;142602;-66
2022/10/20 07:23:50;;;;;;;27.90;19.70;;;;;;;24.04;55.78;100613.04;435829;1282;141689;-67
2022/10/20 07:33:57;;;;;;;19.00;17.00;;;;;;;25.75;51.38;100619.27;436540;1280;143311;-67
2022/10/20 07:44:18;;;;;;;17.40;15.60;;;;;;;27.03;47.48;100627.71;436006;1282;142841;-68
2022/10/20 07:54:24;;;;;;;21.10;17.70;;;;;;;28.01;44.37;100630.91;433716;1282;141613;-67
2022/10/20 08:04:30;;;;;;;20.60;16.60;;;;;;;29.64;41.73;100625.67;436364;1284;140898;-67
2022/10/20 08:14:36;;;;;;;7.50;6.70;;;;;;;31.15;39.03;100620.63;435788;1283;143206;-67
2022/10/20 08:24:42;;;;;;;14.50;9.20;;;;;;;31.62;36.70;100627.19;436454;1282;142795;-67
2022/10/20 08:34:47;;;;;;;9.60;8.80;;;;;;;31.90;35.07;100632.66;436501;1281;142199;-66
2022/10/20 08:44:58;;;;;;;10.30;7.60;;;;;;;31.88;33.19;100630.69;435755;1282;143101;-67
2022/10/20 08:55:06;;;;;;;7.00;6.30;;;;;;;31.25;32.12;100627.66;431341;1281;142947;-67
2022/10/20 09:05:13;;;;;;;6.90;5.00;;;;;;;29.45;31.83;100626.69;436456;1284;143356;-68
2022/10/20 09:15:25;;;;;;;4.80;4.30;;;;;;;26.25;32.66;100628.56;436002;1282;201392;-67
2022/10/20 09:25:31;;;;;;;3.70;3.30;;;;;;;21.75;34.96;100621.88;436508;1282;142477;-67
2022/10/20 09:35:39;;;;;;;4.40;3.20;;;;;;;18.60;37.31;100614.13;435754;1282;143432;-68
2022/10/20 09:45:53;;;;;;;3.20;2.20;;;;;;;16.22;39.39;100614.09;436522;1281;142192;-67
2022/10/20 09:55:59;;;;;;;4.10;2.80;;;;;;;15.27;41.15;100611.30;432058;1280;142656;-67
2022/10/20 10:06:22;;;;;;;2.70;2.40;;;;;;;14.58;42.02;100606.77;435758;1281;141634;-68
2022/10/20 10:16:39;;;;;;;2.50;2.00;;;;;;;13.83;42.85;100609.52;436538;1282;141838;-67
2022/10/20 10:26:47;;;;;;;1.80;1.10;;;;;;;13.18;43.66;100599.08;434010;1282;144546;-67
2022/10/20 10:36:53;;;;;;;1.30;0.80;;;;;;;12.17;44.72;100588.60;436506;1274;142841;-69
2022/10/20 10:47:13;;;;;;;1.10;0.80;;;;;;;11.38;46.07;100582.73;436545;1282;141900;-68
2022/10/20 10:57:30;;;;;;;1.80;0.90;;;;;;;11.26;46.78;100573.86;427537;1282;142322;-70
2022/10/20 11:07:43;;;;;;;1.40;1.20;;;;;;;11.37;47.13;100566.64;431075;1282;141952;-69
2022/10/20 11:18:00;;;;;;;2.60;1.20;;;;;;;11.45;47.49;100556.39;435567;1284;142529;-72
2022/10/20 11:28:29;;;;;;;4.20;1.70;;;;;;;11.53;47.66;100544.45;436252;1282;142447;-68
2022/10/20 11:38:40;;;;;;;1.20;0.80;;;;;;;11.70;47.08;100527.40;435562;1282;143496;-68
2022/10/20 11:48:50;;;;;;;1.10;0.90;;;;;;;11.60;47.34;100514.78;436211;1288;142476;-69
2022/10/20 11:59:15;;;;;;;2.10;1.60;;;;;;;10.91;47.62;100509.21;436225;1283;142013;-67
2022/10/20 12:09:35;;;;;;;1.60;1.10;;;;;;;10.59;48.53;100499.77;436028;1282;207894;-69
2022/10/20 12:19:40;;;;;;;1.20;1.10;;;;;;;10.37;49.03;100496.63;436550;1283;143135;-70
2022/10/20 12:29:58;;;;;;;2.20;1.40;;;;;;;9.84;49.74;100497.86;435727;1284;142138;-68
2022/10/20 12:40:24;;;;;;;2.30;1.00;;;;;;;9.66;50.32;100489.23;436460;1282;142031;-70
2022/10/20 12:50:35;;;;;;;1.90;1.00;;;;;;;9.89;50.40;100478.72;435809;1275;142549;-70
2022/10/20 13:01:05;;;;;;;0.70;0.60;;;;;;;10.00;50.75;100468.60;425049;1282;185442;-68
2022/10/20 13:11:40;;;;;;;1.40;0.80;;;;;;;10.04;49.93;100457.41;430785;1275;142441;-68
2022/10/20 13:21:46;;;;;;;3.90;1.80;;;;;;;9.97;50.16;100454.92;436182;1287;197158;-67
2022/10/20 13:32:11;;;;;;;0.90;0.90;;;;;;;9.78;50.72;100446.23;436462;1284;142703;-67
2022/10/20 13:42:42;;;;;;;1.40;1.30;;;;;;;9.43;51.21;100433.30;435793;1274;141554;-68
2022/10/20 13:52:52;;;;;;;2.30;1.00;;;;;;;9.11;52.09;100424.44;436365;1282;141886;-69
2022/10/20 14:03:01;;;;;;;0.80;0.80;;;;;;;8.94;52.53;100409.96;435252;1282;141091;-69
2022/10/20 14:13:10;;;;;;;2.50;1.10;;;;;;;8.82;53.00;100400.70;435784;1280;144768;-69
2022/10/20 14:23:16;;;;;;;1.30;1.00;;;;;;;8.68;53.24;100396.27;434778;1282;141670;-69
2022/10/20 14:33:22;;;;;;;1.10;1.00;;;;;;;8.54;53.67;100395.43;436108;1287;140506;-68
2022/10/20 14:43:36;;;;;;;2.20;1.00;;;;;;;8.42;54.21;100384.40;436508;1284;143304;-68
2022/10/20 14:53:41;;;;;;;2.90;1.60;;;;;;;8.27;54.63;100368.27;433405;1279;143050;-68
2022/10/20 15:03:47;;;;;;;2.30;1.30;;;;;;;8.09;55.19;100368.50;426919;1281;141363;-69
2022/10/20 15:13:55;;;;;;;2.70;1.20;;;;;;;8.04;55.35;100364.35;436312;1277;140813;-69
2022/10/20 15:24:01;;;;;;;2.40;1.70;;;;;;;7.83;56.00;100360.11;435595;1283;143285;-68
2022/10/20 15:34:09;;;;;;;4.70;2.30;;;;;;;7.43;56.78;100363.05;436280;1280;142009;-68
2022/10/20 15:44:15;;;;;;;;;;;;;;;7.07;57.80;100350.31;436289;1285;141353;-68
2022/10/20 15:54:22;;;;;;;3.60;2.00;;;;;;;6.77;58.88;100336.27;432738;1281;128126;-69
2022/10/20 16:04:30;;;;;;;3.70;3.00;;;;;;;6.49;59.52;100333.08;429028;1282;141305;-68
2022/10/20 16:14:36;;;;;;;7.30;3.20;;;;;;;6.19;60.43;100331.48;435763;1288;142507;-68
2022/10/20 16:24:42;;;;;;;6.00;4.00;;;;;;;5.97;61.32;100335.84;436496;1282;199722;-68
2022/10/20 16:34:48;;;;;;;8.70;5.70;;;;;;;5.77;61.71;100339.58;436526;1280;142674;-69
2022/10/20 16:44:53;;;;;;;8.70;5.80;;;;;;;5.59;62.54;100335.84;435783;1280;142190;-68
2022/10/20 16:54:59;;;;;;;8.40;6.10;;;;;;;5.48;63.34;100336.69;434641;1286;142090;-68
2022/10/20 17:05:05;;;;;;;9.20;5.50;;;;;;;5.40;63.76;100336.06;422954;1282;141668;-68
2022/10/20 17:15:14;;;;;;;10.20;6.80;;;;;;;5.25;64.23;100343.27;422066;1282;143333;-68
2022/10/20 17:25:19;;;;;;;13.50;8.50;;;;;;;5.07;64.85;100352.98;422881;1281;153308;-68
2022/10/20 17:35:25;;;;;;;17.80;11.50;;;;;;;4.90;65.01;100345.13;420356;1281;141510;-68
2022/10/20 17:45:31;;;;;;;16.20;11.10;;;;;;;4.78;65.50;100355.54;436345;1283;202289;-68
2022/10/20 17:55:42;;;;;;;18.20;10.80;;;;;;;4.67;65.94;100356.17;433645;1280;141944;-68
2022/10/20 18:05:47;;;;;;;16.20;11.00;;;;;;;4.52;66.71;100339.74;435023;1288;143252;-69
2022/10/20 18:15:53;;;;;;;15.00;10.40;;;;;;;4.42;67.34;100332.55;436379;1284;142914;-69
2022/10/20 18:26:05;;;;;;;17.00;10.80;;;;;;;4.33;67.74;100316.52;436466;1286;142187;-68
2022/10/20 18:36:13;;;;;;;16.90;10.70;;;;;;;4.25;68.01;100313.09;435750;1280;142923;-67
2022/10/20 18:46:18;;;;;;;17.10;11.80;;;;;;;4.19;68.21;100310.65;436455;1284;141609;-69
2022/10/20 18:56:26;;;;;;;15.30;9.70;;;;;;;4.09;68.44;100307.41;431765;1286;144038;-69
2022/10/20 19:06:33;;;;;;;15.50;10.90;;;;;;;3.98;68.84;100305.80;423001;1282;142408;-69
2022/10/20 19:16:38;;;;;;;;;;;;;;;3.80;69.58;100286.32;427168;1275;142193;-68
2022/10/20 19:26:45;;;;;;;17.90;10.60;;;;;;;3.61;70.15;100285.04;421965;1281;129143;-67
2022/10/20 19:37:11;;;;;;;16.70;12.40;;;;;;;3.44;70.69;100281.12;432928;1287;143126;-68
2022/10/20 19:47:20;;;;;;;19.00;12.40;;;;;;;3.21;70.73;100285.11;429933;1287;141973;-68
2022/10/20 19:57:27;;;;;;;15.60;10.80;;;;;;;2.95;71.44;100282.72;421223;1278;144271;-68
2022/10/20 20:07:33;;;;;;;16.80;12.40;;;;;;;2.72;72.07;100274.20;423111;1279;142590;-68
2022/10/20 20:17:39;;;;;;;18.40;12.80;;;;;;;2.54;72.55;100256.57;426037;1282;143232;-68
2022/10/20 20:27:45;;;;;;;16.40;11.60;;;;;;;2.41;73.11;100253.21;419966;1279;143343;-68
2022/10/20 20:37:50;;;;;;;15.70;11.70;;;;;;;2.29;73.44;100241.86;421705;1279;141867;-69
2022/10/20 20:47:56;;;;;;;18.40;11.70;;;;;;;2.18;73.83;100239.31;424121;1286;142694;-67
2022/10/20 20:58:02;;;;;;;22.30;13.00;;;;;;;2.03;74.37;100241.13;420430;1278;142741;-67
2022/10/20 21:08:08;;;;;;;17.10;11.90;;;;;;;1.92;75.07;100233.05;422844;1280;141604;-68
2022/10/20 21:18:13;;;;;;;15.90;11.70;;;;;;;1.85;75.60;100216.08;420726;1275;142986;-69
2022/10/20 21:28:19;;;;;;;15.60;13.10;;;;;;;1.77;76.12;100206.55;421115;1275;142553;-68
2022/10/20 21:38:24;;;;;;;19.80;12.90;;;;;;;1.68;77.00;100186.68;421956;1291;145111;-68
2022/10/20 21:48:33;;;;;;;17.70;12.20;;;;;;;1.62;77.56;100170.73;424192;1280;142319;-68
2022/10/20 21:58:40;;;;;;;16.30;12.10;;;;;;;1.52;77.76;100181.60;436275;1283;143603;-68
2022/10/20 22:08:49;;;;;;;16.10;12.60;;;;;;;1.38;78.00;100186.48;435633;1282;143016;-67
2022/10/20 22:18:57;;;;;;;18.00;12.40;;;;;;;1.34;78.42;100170.52;436440;1282;141804;-68
2022/10/20 22:29:05;;;;;;;18.10;11.50;;;;;;;1.33;78.58;100166.39;434318;1282;142877;-66
2022/10/20 22:39:11;;;;;;;16.60;12.80;;;;;;;1.28;78.68;100165.61;435745;1281;142806;-68
2022/10/20 22:49:22;;;;;;;14.80;11.50;;;;;;;1.28;78.91;100154.41;436471;1283;144573;-68
2022/10/20 22:59:27;;;;;;;21.20;14.10;;;;;;;1.26;79.21;100144.43;435784;1282;143618;-68
2022/10/20 23:09:33;;;;;;;18.50;14.10;;;;;;;1.21;79.22;100150.71;436477;1280;141810;-68
2022/10/20 23:19:39;;;;;;;17.70;12.70;;;;;;;1.11;79.18;100146.90;436534;1284;141735;-68
2022/10/20 23:29:44;;;;;;;15.10;12.20;;;;;;;1.03;79.17;100150.84;433115;1285;142964;-68
2022/10/20 23:39:50;;;;;;;21.50;13.10;;;;;;;0.92;79.15;100146.34;422899;1282;143081;-68
2022/10/20 23:49:56;;;;;;;17.20;13.30;;;;;;;0.84;79.13;100142.16;423115;1280;143444;-67
